createdAt,value
2017-03-30T00:00:38.773Z,1023.04
2017-03-30T00:01:19.280Z,1023.03
2017-03-30T00:01:59.763Z,1023.05
2017-03-30T00:02:40.233Z,1023.03
2017-03-30T00:03:20.720Z,1023.05
2017-03-30T00:04:01.244Z,1023.05
2017-03-30T00:04:41.701Z,1023.01
2017-03-30T00:05:22.180Z,1022.99
2017-03-30T00:06:02.691Z,1023.04
2017-03-30T00:06:43.164Z,1023.05
2017-03-30T00:07:23.640Z,1023.01
2017-03-30T00:08:04.157Z,1023.02
2017-03-30T00:08:44.616Z,1022.98
2017-03-30T00:09:25.090Z,1022.98
2017-03-30T00:10:05.615Z,1023.01
2017-03-30T00:10:46.079Z,1022.98
2017-03-30T00:11:26.547Z,1022.97
2017-03-30T00:12:07.042Z,1022.98
2017-03-30T00:12:47.494Z,1022.99
2017-03-30T00:13:28.061Z,1022.97
2017-03-30T00:14:08.546Z,1022.97
2017-03-30T00:14:49.040Z,1022.99
2017-03-30T00:15:29.524Z,1023
2017-03-30T00:16:10.025Z,1022.97
2017-03-30T00:16:50.497Z,1023.03
2017-03-30T00:17:31.012Z,1022.97
2017-03-30T00:18:11.494Z,1023.01
2017-03-30T00:18:51.963Z,1023
2017-03-30T00:19:32.425Z,1022.99
2017-03-30T00:20:12.908Z,1023.02
2017-03-30T00:20:53.364Z,1023
2017-03-30T00:21:33.880Z,1023.02
2017-03-30T00:22:14.374Z,1023.01
2017-03-30T00:22:54.918Z,1022.99
2017-03-30T00:23:35.390Z,1023
2017-03-30T00:24:15.855Z,1023.03
2017-03-30T00:24:56.325Z,1023.05
2017-03-30T00:25:36.838Z,1023.02
2017-03-30T00:26:17.296Z,1023.03
2017-03-30T00:26:57.760Z,1022.97
2017-03-30T00:27:38.256Z,1023.02
2017-03-30T00:28:18.753Z,1022.99
2017-03-30T00:28:59.273Z,1022.97
2017-03-30T00:29:39.754Z,1022.97
2017-03-30T00:30:20.200Z,1023.03
2017-03-30T00:31:00.676Z,1023
2017-03-30T00:31:41.189Z,1023.02
2017-03-30T00:32:21.637Z,1023
2017-03-30T00:33:02.132Z,1022.99
2017-03-30T00:33:42.613Z,1023
2017-03-30T00:34:23.079Z,1023
2017-03-30T00:35:03.568Z,1022.98
2017-03-30T00:35:44.101Z,1022.98
2017-03-30T00:36:24.556Z,1023.02
2017-03-30T00:37:05.061Z,1023.02
2017-03-30T00:37:45.582Z,1022.99
2017-03-30T00:38:26.057Z,1022.99
2017-03-30T00:39:06.537Z,1022.99
2017-03-30T00:39:47.013Z,1023
2017-03-30T00:40:27.540Z,1022.98
2017-03-30T00:41:08.040Z,1022.99
2017-03-30T00:41:48.519Z,1023.02
2017-03-30T00:42:29.030Z,1023
2017-03-30T00:43:09.550Z,1023.01
2017-03-30T00:43:49.997Z,1023.02
2017-03-30T00:44:30.524Z,1023.02
2017-03-30T00:45:10.998Z,1023.02
2017-03-30T00:45:51.461Z,1023
2017-03-30T00:46:31.951Z,1023.01
2017-03-30T00:47:12.482Z,1023.01
2017-03-30T00:47:52.955Z,1023.01
2017-03-30T00:48:33.446Z,1023.01
2017-03-30T00:49:13.930Z,1023.01
2017-03-30T00:49:54.411Z,1023.01
2017-03-30T00:50:34.869Z,1023.01
2017-03-30T00:51:15.378Z,1023.01
2017-03-30T00:51:55.845Z,1023.02
2017-03-30T00:52:36.318Z,1023.02
2017-03-30T00:53:16.836Z,1023.01
2017-03-30T00:53:57.309Z,1023
2017-03-30T00:54:37.797Z,1023.01
2017-03-30T00:55:18.261Z,1022.99
2017-03-30T00:55:58.827Z,1022.96
2017-03-30T00:56:39.293Z,1022.93
2017-03-30T00:57:19.781Z,1022.94
2017-03-30T00:58:00.278Z,1022.93
2017-03-30T00:58:40.778Z,1022.91
2017-03-30T00:59:21.328Z,1022.93
2017-03-30T01:00:01.827Z,1022.91
2017-03-30T01:00:42.295Z,1022.89
2017-03-30T01:01:22.818Z,1022.93
2017-03-30T01:02:03.307Z,1022.88
2017-03-30T01:02:43.850Z,1022.9
2017-03-30T01:03:24.268Z,1022.91
2017-03-30T01:05:42.221Z,1022.83
2017-03-30T01:06:22.669Z,1022.84
2017-03-30T01:07:03.162Z,1022.85
2017-03-30T01:07:43.626Z,1022.84
2017-03-30T01:08:24.127Z,1022.86
2017-03-30T01:09:04.590Z,1022.84
2017-03-30T01:09:46.063Z,1022.88
2017-03-30T01:10:26.530Z,1022.89
2017-03-30T01:11:07.005Z,1022.85
2017-03-30T01:11:47.501Z,1022.82
2017-03-30T01:12:27.973Z,1022.85
2017-03-30T01:13:08.480Z,1022.87
2017-03-30T01:13:48.954Z,1022.82
2017-03-30T01:14:29.423Z,1022.8
2017-03-30T01:15:09.932Z,1022.78
2017-03-30T01:15:50.410Z,1022.8
2017-03-30T01:16:30.889Z,1022.73
2017-03-30T01:17:11.383Z,1022.82
2017-03-30T01:17:51.859Z,1022.8
2017-03-30T01:18:32.335Z,1022.77
2017-03-30T01:19:12.811Z,1022.81
2017-03-30T01:19:53.298Z,1022.78
2017-03-30T01:20:33.780Z,1022.77
2017-03-30T01:21:14.274Z,1022.74
2017-03-30T01:21:54.855Z,1022.7
2017-03-30T01:22:35.329Z,1022.77
2017-03-30T01:23:15.783Z,1022.71
2017-03-30T01:23:56.255Z,1022.76
2017-03-30T01:24:36.750Z,1022.76
2017-03-30T01:25:17.226Z,1022.71
2017-03-30T01:25:57.720Z,1022.75
2017-03-30T01:26:38.240Z,1022.75
2017-03-30T01:27:18.711Z,1022.68
2017-03-30T01:27:59.234Z,1022.7
2017-03-30T01:28:39.711Z,1022.68
2017-03-30T01:29:20.170Z,1022.68
2017-03-30T01:30:00.638Z,1022.67
2017-03-30T01:30:41.190Z,1022.71
2017-03-30T01:31:21.673Z,1022.71
2017-03-30T01:32:02.176Z,1022.7
2017-03-30T01:32:42.766Z,1022.69
2017-03-30T01:33:23.158Z,1022.72
2017-03-30T01:34:03.650Z,1022.68
2017-03-30T01:34:44.150Z,1022.69
2017-03-30T01:35:24.621Z,1022.69
2017-03-30T01:36:05.091Z,1022.68
2017-03-30T01:36:45.560Z,1022.68
2017-03-30T01:37:26.054Z,1022.68
2017-03-30T01:38:06.524Z,1022.72
2017-03-30T01:38:46.992Z,1022.69
2017-03-30T01:39:27.492Z,1022.69
2017-03-30T01:40:07.949Z,1022.69
2017-03-30T01:40:48.434Z,1022.69
2017-03-30T01:41:28.929Z,1022.71
2017-03-30T01:42:09.430Z,1022.7
2017-03-30T01:42:50.110Z,1022.69
2017-03-30T01:43:30.556Z,1022.69
2017-03-30T01:44:11.047Z,1022.66
2017-03-30T01:44:51.518Z,1022.67
2017-03-30T01:45:31.992Z,1022.6
2017-03-30T01:46:12.463Z,1022.64
2017-03-30T01:46:52.996Z,1022.65
2017-03-30T01:47:33.474Z,1022.6
2017-03-30T01:48:13.943Z,1022.65
2017-03-30T01:48:54.406Z,1022.59
2017-03-30T01:49:34.875Z,1022.61
2017-03-30T01:50:15.364Z,1022.56
2017-03-30T01:50:55.849Z,1022.61
2017-03-30T01:51:36.303Z,1022.58
2017-03-30T01:52:16.767Z,1022.57
2017-03-30T01:52:57.253Z,1022.56
2017-03-30T01:53:37.725Z,1022.5
2017-03-30T01:54:18.195Z,1022.52
2017-03-30T01:54:58.942Z,1022.54
2017-03-30T01:55:39.424Z,1022.55
2017-03-30T01:56:19.901Z,1022.56
2017-03-30T01:57:00.380Z,1022.6
2017-03-30T01:57:40.855Z,1022.54
2017-03-30T01:58:21.343Z,1022.54
2017-03-30T01:59:01.837Z,1022.48
2017-03-30T01:59:42.310Z,1022.48
2017-03-30T02:00:22.788Z,1022.47
2017-03-30T02:01:03.246Z,1022.44
2017-03-30T02:01:43.727Z,1022.42
2017-03-30T02:02:24.233Z,1022.46
2017-03-30T02:03:04.710Z,1022.45
2017-03-30T02:03:45.240Z,1022.47
2017-03-30T02:04:25.704Z,1022.48
2017-03-30T02:05:06.308Z,1022.44
2017-03-30T02:05:46.779Z,1022.47
2017-03-30T02:06:27.273Z,1022.47
2017-03-30T02:07:07.773Z,1022.47
2017-03-30T02:07:48.274Z,1022.5
2017-03-30T02:08:28.741Z,1022.48
2017-03-30T02:09:09.207Z,1022.48
2017-03-30T02:09:49.707Z,1022.52
2017-03-30T02:10:30.218Z,1022.54
2017-03-30T02:11:10.704Z,1022.52
2017-03-30T02:11:51.207Z,1022.51
2017-03-30T02:12:31.662Z,1022.45
2017-03-30T02:13:12.134Z,1022.47
2017-03-30T02:13:52.609Z,1022.48
2017-03-30T02:14:33.103Z,1022.45
2017-03-30T02:15:13.586Z,1022.45
2017-03-30T02:15:54.156Z,1022.45
2017-03-30T02:16:34.623Z,1022.47
2017-03-30T02:17:15.139Z,1022.48
2017-03-30T02:17:55.622Z,1022.48
2017-03-30T02:20:09.832Z,1022.46
2017-03-30T02:20:50.269Z,1022.46
2017-03-30T02:21:30.764Z,1022.43
2017-03-30T02:22:11.254Z,1022.49
2017-03-30T02:22:51.768Z,1022.44
2017-03-30T02:23:32.258Z,1022.44
2017-03-30T02:24:12.728Z,1022.48
2017-03-30T02:24:53.205Z,1022.45
2017-03-30T02:25:33.754Z,1022.42
2017-03-30T02:26:14.276Z,1022.45
2017-03-30T02:26:54.726Z,1022.44
2017-03-30T02:27:35.206Z,1022.41
2017-03-30T02:28:15.678Z,1022.39
2017-03-30T02:28:56.170Z,1022.34
2017-03-30T02:29:36.635Z,1022.42
2017-03-30T02:30:17.104Z,1022.37
2017-03-30T02:30:57.607Z,1022.4
2017-03-30T02:31:38.045Z,1022.38
2017-03-30T02:32:18.547Z,1022.33
2017-03-30T02:32:59.054Z,1022.39
2017-03-30T02:33:39.532Z,1022.35
2017-03-30T02:34:19.998Z,1022.32
2017-03-30T02:35:00.467Z,1022.38
2017-03-30T02:35:40.981Z,1022.38
2017-03-30T02:36:21.448Z,1022.37
2017-03-30T02:37:01.941Z,1022.37
2017-03-30T02:37:42.407Z,1022.38
2017-03-30T02:38:22.921Z,1022.41
2017-03-30T02:39:03.394Z,1022.37
2017-03-30T02:39:43.883Z,1022.37
2017-03-30T02:40:24.360Z,1022.37
2017-03-30T02:41:04.855Z,1022.41
2017-03-30T02:41:45.360Z,1022.39
2017-03-30T02:42:25.872Z,1022.4
2017-03-30T02:43:06.350Z,1022.37
2017-03-30T02:43:46.836Z,1022.38
2017-03-30T02:44:27.333Z,1022.38
2017-03-30T02:45:07.820Z,1022.36
2017-03-30T02:45:48.285Z,1022.36
2017-03-30T02:46:28.779Z,1022.37
2017-03-30T02:47:09.265Z,1022.39
2017-03-30T02:47:49.753Z,1022.39
2017-03-30T02:48:30.222Z,1022.36
2017-03-30T02:49:10.675Z,1022.37
2017-03-30T02:49:51.158Z,1022.35
2017-03-30T02:50:31.652Z,1022.3
2017-03-30T02:51:12.139Z,1022.3
2017-03-30T02:51:52.615Z,1022.31
2017-03-30T02:52:33.118Z,1022.27
2017-03-30T02:53:13.589Z,1022.25
2017-03-30T02:53:54.102Z,1022.24
2017-03-30T02:54:34.605Z,1022.24
2017-03-30T02:55:15.094Z,1022.22
2017-03-30T02:55:55.635Z,1022.22
2017-03-30T02:56:36.134Z,1022.22
2017-03-30T02:57:16.598Z,1022.24
2017-03-30T02:57:57.071Z,1022.21
2017-03-30T02:58:37.574Z,1022.18
2017-03-30T02:59:18.057Z,1022.2
2017-03-30T02:59:58.497Z,1022.22
2017-03-30T03:00:39.020Z,1022.25
2017-03-30T03:01:19.476Z,1022.25
2017-03-30T03:01:59.994Z,1022.25
2017-03-30T03:02:40.485Z,1022.23
2017-03-30T03:03:20.977Z,1022.22
2017-03-30T03:04:01.460Z,1022.24
2017-03-30T03:04:41.936Z,1022.21
2017-03-30T03:05:22.402Z,1022.23
2017-03-30T03:06:02.895Z,1022.24
2017-03-30T03:06:43.372Z,1022.2
2017-03-30T03:07:23.873Z,1022.23
2017-03-30T03:08:04.335Z,1022.25
2017-03-30T03:08:44.796Z,1022.22
2017-03-30T03:09:25.302Z,1022.24
2017-03-30T03:10:05.796Z,1022.22
2017-03-30T03:10:46.280Z,1022.21
2017-03-30T03:11:26.761Z,1022.2
2017-03-30T03:12:07.234Z,1022.21
2017-03-30T03:12:47.760Z,1022.22
2017-03-30T03:13:28.229Z,1022.23
2017-03-30T03:14:08.720Z,1022.2
2017-03-30T03:14:49.218Z,1022.23
2017-03-30T03:15:29.690Z,1022.28
2017-03-30T03:16:10.178Z,1022.29
2017-03-30T03:16:50.669Z,1022.29
2017-03-30T03:17:31.158Z,1022.27
2017-03-30T03:18:13.535Z,1022.29
2017-03-30T03:18:54.012Z,1022.28
2017-03-30T03:19:34.522Z,1022.28
2017-03-30T03:20:14.981Z,1022.3
2017-03-30T03:20:55.484Z,1022.26
2017-03-30T03:21:35.915Z,1022.29
2017-03-30T03:22:16.402Z,1022.27
2017-03-30T03:22:56.848Z,1022.3
2017-03-30T03:23:37.321Z,1022.24
2017-03-30T03:24:17.815Z,1022.24
2017-03-30T03:24:58.324Z,1022.26
2017-03-30T03:25:38.786Z,1022.22
2017-03-30T03:26:19.274Z,1022.23
2017-03-30T03:26:59.729Z,1022.2
2017-03-30T03:27:40.193Z,1022.29
2017-03-30T03:28:20.685Z,1022.27
2017-03-30T03:29:01.186Z,1022.23
2017-03-30T03:29:41.663Z,1022.2
2017-03-30T03:30:22.149Z,1022.24
2017-03-30T03:31:02.617Z,1022.22
2017-03-30T03:31:43.121Z,1022.22
2017-03-30T03:32:23.586Z,1022.22
2017-03-30T03:33:04.078Z,1022.23
2017-03-30T03:33:44.549Z,1022.21
2017-03-30T03:34:25.042Z,1022.21
2017-03-30T03:35:05.508Z,1022.19
2017-03-30T03:35:46.027Z,1022.21
2017-03-30T03:36:26.491Z,1022.19
2017-03-30T03:37:06.979Z,1022.14
2017-03-30T03:37:47.469Z,1022.18
2017-03-30T03:38:27.970Z,1022.21
2017-03-30T03:39:08.449Z,1022.17
2017-03-30T03:39:48.994Z,1022.18
2017-03-30T03:40:29.474Z,1022.23
2017-03-30T03:41:09.986Z,1022.2
2017-03-30T03:41:50.456Z,1022.18
2017-03-30T03:42:30.941Z,1022.2
2017-03-30T03:43:11.413Z,1022.22
2017-03-30T03:43:51.900Z,1022.22
2017-03-30T03:44:32.390Z,1022.21
2017-03-30T03:45:12.924Z,1022.2
2017-03-30T03:45:53.369Z,1022.19
2017-03-30T03:46:33.858Z,1022.18
2017-03-30T03:47:14.338Z,1022.19
2017-03-30T03:47:54.815Z,1022.16
2017-03-30T03:48:35.318Z,1022.19
2017-03-30T03:49:15.786Z,1022.18
2017-03-30T03:49:56.263Z,1022.23
2017-03-30T03:50:36.725Z,1022.18
2017-03-30T03:51:17.235Z,1022.21
2017-03-30T03:51:57.696Z,1022.21
2017-03-30T03:52:38.190Z,1022.13
2017-03-30T03:53:18.659Z,1022.13
2017-03-30T03:53:59.153Z,1022.16
2017-03-30T03:54:39.645Z,1022.1
2017-03-30T03:55:20.155Z,1022.1
2017-03-30T03:56:00.610Z,1022.14
2017-03-30T03:56:41.121Z,1022.13
2017-03-30T03:57:21.628Z,1022.12
2017-03-30T03:58:02.084Z,1022.1
2017-03-30T03:58:42.593Z,1022.09
2017-03-30T03:59:23.112Z,1022.1
2017-03-30T04:00:03.577Z,1022.06
2017-03-30T04:00:44.091Z,1022.07
2017-03-30T04:01:24.554Z,1022.06
2017-03-30T04:02:05.053Z,1022.03
2017-03-30T04:02:45.492Z,1022.04
2017-03-30T04:03:26.003Z,1022.03
2017-03-30T04:04:06.469Z,1022.04
2017-03-30T04:04:46.970Z,1022.01
2017-03-30T04:05:27.514Z,1022.05
2017-03-30T04:06:07.999Z,1022.01
2017-03-30T04:06:48.499Z,1022.05
2017-03-30T04:07:28.944Z,1022.07
2017-03-30T04:08:09.433Z,1022.05
2017-03-30T04:08:49.932Z,1022.09
2017-03-30T04:09:30.376Z,1022.08
2017-03-30T04:10:10.841Z,1022.06
2017-03-30T04:10:51.341Z,1022.16
2017-03-30T04:11:31.786Z,1022.14
2017-03-30T04:12:12.293Z,1022.16
2017-03-30T04:12:52.808Z,1022.17
2017-03-30T04:13:33.285Z,1022.17
2017-03-30T04:14:13.814Z,1022.18
2017-03-30T04:14:54.278Z,1022.12
2017-03-30T04:15:34.732Z,1022.15
2017-03-30T04:16:15.202Z,1022.17
2017-03-30T04:16:55.700Z,1022.18
2017-03-30T04:17:36.168Z,1022.15
2017-03-30T04:18:16.668Z,1022.17
2017-03-30T04:18:57.151Z,1022.18
2017-03-30T04:19:37.654Z,1022.14
2017-03-30T04:20:18.126Z,1022.1
2017-03-30T04:20:58.596Z,1022.11
2017-03-30T04:23:16.856Z,1022.08
2017-03-30T04:23:57.323Z,1022.08
2017-03-30T04:24:37.789Z,1022.1
2017-03-30T04:25:18.283Z,1022.06
2017-03-30T04:25:58.747Z,1022.08
2017-03-30T04:26:39.332Z,1022.06
2017-03-30T04:27:19.788Z,1022.08
2017-03-30T04:28:00.275Z,1022
2017-03-30T04:28:40.755Z,1022.02
2017-03-30T04:29:21.238Z,1022.02
2017-03-30T04:30:01.717Z,1021.99
2017-03-30T04:30:42.217Z,1021.91
2017-03-30T04:31:22.698Z,1021.92
2017-03-30T04:32:03.128Z,1021.93
2017-03-30T04:32:43.589Z,1021.91
2017-03-30T04:33:24.079Z,1021.88
2017-03-30T04:34:04.556Z,1021.97
2017-03-30T04:34:45.050Z,1021.97
2017-03-30T04:35:25.498Z,1021.92
2017-03-30T04:36:05.962Z,1021.92
2017-03-30T04:36:46.461Z,1021.95
2017-03-30T04:37:26.960Z,1021.91
2017-03-30T04:38:07.454Z,1021.9
2017-03-30T04:38:47.892Z,1021.9
2017-03-30T04:39:28.367Z,1021.93
2017-03-30T04:40:08.842Z,1021.92
2017-03-30T04:40:49.334Z,1021.92
2017-03-30T04:41:29.836Z,1021.93
2017-03-30T04:42:10.323Z,1021.89
2017-03-30T04:42:50.834Z,1021.87
2017-03-30T04:43:31.306Z,1021.9
2017-03-30T04:44:11.780Z,1021.91
2017-03-30T04:44:52.273Z,1021.89
2017-03-30T04:45:32.760Z,1021.9
2017-03-30T04:46:13.218Z,1021.9
2017-03-30T04:46:53.752Z,1021.88
2017-03-30T04:47:34.243Z,1021.88
2017-03-30T04:48:14.690Z,1021.84
2017-03-30T04:48:55.190Z,1021.89
2017-03-30T04:49:35.682Z,1021.82
2017-03-30T04:50:16.184Z,1021.86
2017-03-30T04:50:56.656Z,1021.88
2017-03-30T04:51:37.170Z,1021.83
2017-03-30T04:52:17.655Z,1021.84
2017-03-30T04:52:58.143Z,1021.83
2017-03-30T04:53:38.612Z,1021.79
2017-03-30T04:54:19.106Z,1021.81
2017-03-30T04:54:59.584Z,1021.88
2017-03-30T04:55:40.067Z,1021.85
2017-03-30T04:56:20.535Z,1021.82
2017-03-30T04:57:01.005Z,1021.82
2017-03-30T04:57:41.478Z,1021.79
2017-03-30T04:58:21.952Z,1021.77
2017-03-30T04:59:02.456Z,1021.79
2017-03-30T04:59:42.979Z,1021.79
2017-03-30T05:00:23.457Z,1021.77
2017-03-30T05:01:03.965Z,1021.83
2017-03-30T05:01:44.481Z,1021.84
2017-03-30T05:02:24.984Z,1021.87
2017-03-30T05:03:05.491Z,1021.85
2017-03-30T05:03:45.995Z,1021.88
2017-03-30T05:04:26.453Z,1021.84
2017-03-30T05:05:06.916Z,1021.81
2017-03-30T05:05:47.426Z,1021.81
2017-03-30T05:06:27.885Z,1021.81
2017-03-30T05:07:08.365Z,1021.87
2017-03-30T05:07:48.846Z,1021.85
2017-03-30T05:08:29.333Z,1021.89
2017-03-30T05:09:09.815Z,1021.85
2017-03-30T05:09:50.298Z,1021.86
2017-03-30T05:10:30.773Z,1021.88
2017-03-30T05:11:11.243Z,1021.85
2017-03-30T05:11:51.753Z,1021.82
2017-03-30T05:14:10.049Z,1021.82
2017-03-30T05:14:50.535Z,1021.79
2017-03-30T05:15:31.034Z,1021.8
2017-03-30T05:16:11.496Z,1021.77
2017-03-30T05:16:51.976Z,1021.79
2017-03-30T05:17:32.430Z,1021.78
2017-03-30T05:18:12.921Z,1021.81
2017-03-30T05:18:53.432Z,1021.77
2017-03-30T05:19:33.875Z,1021.78
2017-03-30T05:20:14.392Z,1021.77
2017-03-30T05:20:54.875Z,1021.77
2017-03-30T05:21:35.374Z,1021.76
2017-03-30T05:22:15.912Z,1021.77
2017-03-30T05:22:56.411Z,1021.79
2017-03-30T05:23:43.432Z,1021.8
2017-03-30T05:24:23.890Z,1021.81
2017-03-30T05:25:04.366Z,1021.78
2017-03-30T05:25:44.911Z,1021.76
2017-03-30T05:26:25.405Z,1021.8
2017-03-30T05:27:05.945Z,1021.78
2017-03-30T05:27:46.432Z,1021.84
2017-03-30T05:28:26.902Z,1021.84
2017-03-30T05:29:07.415Z,1021.88
2017-03-30T05:29:47.878Z,1021.92
2017-03-30T05:30:28.394Z,1021.94
2017-03-30T05:31:08.858Z,1021.98
2017-03-30T05:31:49.359Z,1022
2017-03-30T05:32:29.820Z,1021.94
2017-03-30T05:33:10.288Z,1021.96
2017-03-30T05:33:50.783Z,1021.93
2017-03-30T05:34:31.264Z,1021.96
2017-03-30T05:35:11.740Z,1021.98
2017-03-30T05:35:52.228Z,1022.03
2017-03-30T05:36:32.701Z,1021.99
2017-03-30T05:37:13.205Z,1021.98
2017-03-30T05:37:53.677Z,1021.9
2017-03-30T05:38:34.157Z,1021.99
2017-03-30T05:39:14.608Z,1022
2017-03-30T05:39:55.112Z,1021.91
2017-03-30T05:40:35.601Z,1021.85
2017-03-30T05:41:16.090Z,1021.86
2017-03-30T05:41:56.540Z,1021.84
2017-03-30T05:42:37.030Z,1021.89
2017-03-30T05:43:17.518Z,1021.82
2017-03-30T05:43:58.052Z,1021.9
2017-03-30T05:44:38.531Z,1021.91
2017-03-30T05:45:19.007Z,1021.96
2017-03-30T05:45:59.508Z,1021.96
2017-03-30T05:46:39.968Z,1021.94
2017-03-30T05:47:20.452Z,1021.97
2017-03-30T05:48:00.965Z,1021.95
2017-03-30T05:48:41.468Z,1021.94
2017-03-30T05:49:21.926Z,1021.96
2017-03-30T05:50:02.415Z,1022.02
2017-03-30T05:50:42.865Z,1022.08
2017-03-30T05:51:23.327Z,1021.99
2017-03-30T05:52:03.858Z,1022.04
2017-03-30T05:52:45.059Z,1022.02
2017-03-30T05:53:25.565Z,1022.05
2017-03-30T05:54:06.037Z,1022.02
2017-03-30T05:54:46.537Z,1022.07
2017-03-30T05:55:27.097Z,1022.03
2017-03-30T05:56:07.563Z,1022.06
2017-03-30T05:56:48.084Z,1022.02
2017-03-30T05:57:28.565Z,1022.06
2017-03-30T05:58:09.092Z,1022.1
2017-03-30T05:58:49.565Z,1022.13
2017-03-30T05:59:30.082Z,1022.03
2017-03-30T06:00:10.545Z,1022.02
2017-03-30T06:00:51.045Z,1022.08
2017-03-30T06:01:31.543Z,1022
2017-03-30T06:02:12.029Z,1022
2017-03-30T06:04:26.333Z,1021.97
2017-03-30T06:05:06.728Z,1021.96
2017-03-30T06:05:47.246Z,1022.01
2017-03-30T06:06:27.709Z,1021.94
2017-03-30T06:07:08.209Z,1022.01
2017-03-30T06:07:48.706Z,1022.07
2017-03-30T06:08:29.149Z,1022.02
2017-03-30T06:09:09.683Z,1021.94
2017-03-30T06:09:50.186Z,1021.99
2017-03-30T06:10:30.651Z,1021.97
2017-03-30T06:11:11.135Z,1021.99
2017-03-30T06:11:51.563Z,1021.99
2017-03-30T06:12:32.099Z,1021.96
2017-03-30T06:13:12.601Z,1022.01
2017-03-30T06:13:53.956Z,1021.96
2017-03-30T06:14:34.986Z,1022.01
2017-03-30T06:15:15.494Z,1022.03
2017-03-30T06:15:57.587Z,1021.97
2017-03-30T06:16:38.058Z,1022.07
2017-03-30T06:17:18.557Z,1022.02
2017-03-30T06:17:59.033Z,1022.02
2017-03-30T06:18:39.508Z,1021.96
2017-03-30T06:19:19.991Z,1021.94
2017-03-30T06:20:00.479Z,1021.94
2017-03-30T06:20:40.970Z,1021.96
2017-03-30T06:21:21.502Z,1021.95
2017-03-30T06:22:01.992Z,1021.97
2017-03-30T06:22:42.444Z,1021.99
2017-03-30T06:23:22.922Z,1021.93
2017-03-30T06:24:03.422Z,1021.9
2017-03-30T06:24:43.908Z,1022.07
2017-03-30T06:25:24.459Z,1022
2017-03-30T06:26:04.955Z,1021.96
2017-03-30T06:26:45.454Z,1022.01
2017-03-30T06:27:25.902Z,1022
2017-03-30T06:28:06.390Z,1022.01
2017-03-30T06:28:46.905Z,1021.99
2017-03-30T06:29:27.400Z,1021.98
2017-03-30T06:30:09.116Z,1021.94
2017-03-30T06:30:49.140Z,1021.95
2017-03-30T06:31:29.643Z,1021.99
2017-03-30T06:32:10.135Z,1021.95
2017-03-30T06:32:50.626Z,1022.01
2017-03-30T06:33:31.103Z,1022.01
2017-03-30T06:34:11.575Z,1021.98
2017-03-30T06:34:52.081Z,1021.93
2017-03-30T06:35:32.568Z,1022.1
2017-03-30T06:36:13.051Z,1022.03
2017-03-30T06:36:53.530Z,1022
2017-03-30T06:37:34.000Z,1022.04
2017-03-30T06:38:14.492Z,1022.07
2017-03-30T06:38:55.013Z,1022.06
2017-03-30T06:39:35.537Z,1022.02
2017-03-30T06:40:16.032Z,1022.01
2017-03-30T06:40:56.492Z,1022.02
2017-03-30T06:41:37.011Z,1021.97
2017-03-30T06:42:17.490Z,1021.96
2017-03-30T06:42:57.967Z,1021.95
2017-03-30T06:43:38.448Z,1021.92
2017-03-30T06:44:18.969Z,1021.96
2017-03-30T06:44:59.446Z,1021.92
2017-03-30T06:45:39.963Z,1021.91
2017-03-30T06:46:20.477Z,1021.97
2017-03-30T06:47:00.961Z,1021.93
2017-03-30T06:47:43.634Z,1021.93
2017-03-30T06:48:29.830Z,1021.94
2017-03-30T06:49:10.308Z,1021.94
2017-03-30T06:49:50.776Z,1021.97
2017-03-30T06:50:31.266Z,1021.92
2017-03-30T06:51:11.768Z,1021.91
2017-03-30T06:51:52.249Z,1022.06
2017-03-30T06:52:32.755Z,1021.96
2017-03-30T06:53:13.227Z,1021.95
2017-03-30T06:53:53.717Z,1021.95
2017-03-30T06:54:34.228Z,1021.92
2017-03-30T06:55:15.913Z,1021.95
2017-03-30T06:55:56.427Z,1021.81
2017-03-30T06:56:36.915Z,1021.9
2017-03-30T06:57:17.401Z,1021.84
2017-03-30T06:57:57.895Z,1021.82
2017-03-30T06:58:38.420Z,1021.86
2017-03-30T06:59:18.919Z,1021.87
2017-03-30T07:00:00.346Z,1021.85
2017-03-30T07:00:40.900Z,1021.95
2017-03-30T07:01:21.392Z,1021.95
2017-03-30T07:02:01.882Z,1021.94
2017-03-30T07:02:42.359Z,1021.87
2017-03-30T07:03:22.920Z,1021.91
2017-03-30T07:04:03.350Z,1021.96
2017-03-30T07:04:43.933Z,1021.97
2017-03-30T07:05:25.120Z,1022.03
2017-03-30T07:06:06.779Z,1021.95
2017-03-30T07:06:47.805Z,1021.97
2017-03-30T07:07:28.317Z,1021.97
2017-03-30T07:08:08.834Z,1021.84
2017-03-30T07:08:49.593Z,1021.89
2017-03-30T07:09:32.804Z,1021.86
2017-03-30T07:10:13.845Z,1021.86
2017-03-30T07:10:55.482Z,1021.93
2017-03-30T07:11:41.851Z,1021.92
2017-03-30T07:12:24.265Z,1021.88
2017-03-30T07:13:10.905Z,1021.91
2017-03-30T07:13:51.874Z,1021.91
2017-03-30T07:14:33.182Z,1021.86
2017-03-30T07:15:14.256Z,1021.88
2017-03-30T07:15:55.130Z,1021.91
2017-03-30T07:16:36.516Z,1021.93
2017-03-30T07:17:17.085Z,1021.91
2017-03-30T07:17:57.547Z,1021.91
2017-03-30T07:18:38.255Z,1022.02
2017-03-30T07:19:18.749Z,1021.88
2017-03-30T07:19:59.211Z,1021.86
2017-03-30T07:20:40.373Z,1021.87
2017-03-30T07:21:23.650Z,1021.86
2017-03-30T07:22:04.222Z,1021.81
2017-03-30T07:22:44.802Z,1021.85
2017-03-30T07:23:25.302Z,1021.87
2017-03-30T07:24:05.807Z,1021.83
2017-03-30T07:24:46.313Z,1021.89
2017-03-30T07:25:26.791Z,1021.92
2017-03-30T07:26:07.294Z,1021.83
2017-03-30T07:26:47.913Z,1021.89
2017-03-30T07:27:29.855Z,1021.91
2017-03-30T07:28:10.353Z,1021.9
2017-03-30T07:28:50.826Z,1021.89
2017-03-30T07:29:31.339Z,1021.92
2017-03-30T07:30:11.831Z,1021.83
2017-03-30T07:30:52.404Z,1021.98
2017-03-30T07:31:33.072Z,1021.85
2017-03-30T07:32:13.550Z,1021.85
2017-03-30T07:32:54.461Z,1021.87
2017-03-30T07:33:34.950Z,1021.84
2017-03-30T07:34:15.460Z,1021.87
2017-03-30T07:34:56.368Z,1021.9
2017-03-30T07:36:49.509Z,1021.87
2017-03-30T07:37:30.321Z,1021.91
2017-03-30T07:38:10.792Z,1021.85
2017-03-30T07:38:51.727Z,1021.87
2017-03-30T07:39:33.325Z,1021.88
2017-03-30T07:40:13.784Z,1021.84
2017-03-30T07:40:54.260Z,1021.89
2017-03-30T07:41:34.774Z,1021.89
2017-03-30T07:42:15.305Z,1021.86
2017-03-30T07:42:55.765Z,1021.93
2017-03-30T07:43:36.280Z,1021.88
2017-03-30T07:44:16.869Z,1021.81
2017-03-30T07:44:57.734Z,1021.9
2017-03-30T07:45:38.206Z,1021.95
2017-03-30T07:46:19.055Z,1021.96
2017-03-30T07:46:59.698Z,1021.89
2017-03-30T07:47:40.159Z,1021.96
2017-03-30T07:48:20.652Z,1021.93
2017-03-30T07:49:01.221Z,1021.92
2017-03-30T07:49:41.722Z,1021.9
2017-03-30T07:50:22.254Z,1021.98
2017-03-30T07:51:02.698Z,1021.88
2017-03-30T07:51:43.214Z,1021.92
2017-03-30T07:52:23.756Z,1021.92
2017-03-30T07:53:04.986Z,1021.86
2017-03-30T07:53:45.474Z,1021.92
2017-03-30T07:54:25.917Z,1021.88
2017-03-30T07:55:06.420Z,1021.84
2017-03-30T07:55:46.908Z,1021.9
2017-03-30T07:56:27.390Z,1021.97
2017-03-30T07:57:07.904Z,1021.94
2017-03-30T07:57:48.393Z,1021.88
2017-03-30T07:58:28.919Z,1021.87
2017-03-30T07:59:09.366Z,1021.83
2017-03-30T07:59:49.827Z,1021.85
2017-03-30T08:00:30.353Z,1021.9
2017-03-30T08:01:10.840Z,1021.91
2017-03-30T08:01:51.308Z,1021.87
2017-03-30T08:02:31.774Z,1021.98
2017-03-30T08:03:12.331Z,1021.92
2017-03-30T08:03:52.785Z,1021.94
2017-03-30T08:04:33.231Z,1021.96
2017-03-30T08:05:13.718Z,1022
2017-03-30T08:05:54.213Z,1021.98
2017-03-30T08:06:34.679Z,1021.96
2017-03-30T08:07:15.262Z,1021.95
2017-03-30T08:07:55.725Z,1021.96
2017-03-30T08:08:36.280Z,1021.99
2017-03-30T08:09:16.779Z,1021.93
2017-03-30T08:09:57.279Z,1021.98
2017-03-30T08:10:37.783Z,1021.93
2017-03-30T08:11:18.273Z,1021.95
2017-03-30T08:11:58.998Z,1021.98
2017-03-30T08:12:39.401Z,1022.02
2017-03-30T08:13:19.928Z,1022.06
2017-03-30T08:14:00.492Z,1022.03
2017-03-30T08:14:40.979Z,1021.96
2017-03-30T08:15:21.492Z,1022.02
2017-03-30T08:16:01.977Z,1021.99
2017-03-30T08:16:42.488Z,1021.96
2017-03-30T08:17:22.954Z,1021.97
2017-03-30T08:18:03.560Z,1021.95
2017-03-30T08:18:44.105Z,1022.04
2017-03-30T08:19:24.595Z,1022.03
2017-03-30T08:20:05.704Z,1022.08
2017-03-30T08:20:46.180Z,1022.06
2017-03-30T08:21:26.672Z,1022.04
2017-03-30T08:22:07.175Z,1022.06
2017-03-30T08:24:20.958Z,1022.04